Time;durP1;ratioP1;P1;durP2;ratioP2;P2;SDS_P1;SDS_P2;PMS_P1;PMS_P2;Temp;Humidity;BMP_temperature;BMP_pressure;BME280_temperature;BME280_humidity;BME280_pressure;Samples;Min_cycle;Max_cycle;Signal;HPM_P1;HPM_P2
2022/02/19 00:01:32;;;;;;;8.50;3.97;;;;;;;4.88;56.45;100851.47;4971017;28;20536;-77
2022/02/19 00:03:57;;;;;;;10.93;4.00;;;;;;;4.95;57.11;100847.66;4970998;28;20473;-82
2022/02/19 00:06:23;;;;;;;7.53;3.38;;;;;;;4.72;57.65;100810.34;4999755;28;20092;-85
2022/02/19 00:08:48;;;;;;;9.27;3.13;;;;;;;4.86;58.59;100853.06;4993364;28;20066;-79
2022/02/19 00:11:14;;;;;;;7.25;3.75;;;;;;;4.83;58.37;100840.06;4970743;28;20101;-78
2022/02/19 00:13:40;;;;;;;11.40;4.03;;;;;;;4.70;58.17;100848.59;4954592;28;20081;-80
2022/02/19 00:16:06;;;;;;;7.85;3.63;;;;;;;4.06;58.92;100845.97;4971008;28;20043;-81
2022/02/19 00:18:32;;;;;;;9.35;3.22;;;;;;;3.82;59.75;100805.19;4970881;28;20038;-79
2022/02/19 00:20:57;;;;;;;5.47;3.13;;;;;;;3.96;59.48;100834.28;4968816;28;20125;-84
2022/02/19 00:23:28;;;;;;;7.15;2.90;;;;;;;4.14;59.43;100844.84;4990464;28;20531;-81
2022/02/19 00:25:53;;;;;;;5.65;2.40;;;;;;;3.97;59.34;100807.91;4973598;28;20073;-78
2022/02/19 00:28:19;;;;;;;4.80;2.97;;;;;;;4.16;59.29;100824.50;4990093;28;20515;-80
2022/02/19 00:30:44;;;;;;;9.40;2.78;;;;;;;4.22;59.39;100824.94;4973589;28;20038;-81
2022/02/19 00:33:10;;;;;;;11.32;3.38;;;;;;;4.18;60.33;100834.06;4989873;28;20127;-80
2022/02/19 00:35:35;;;;;;;8.82;3.47;;;;;;;3.99;59.98;100829.34;4973503;28;20089;-78
2022/02/19 00:38:01;;;;;;;12.40;3.50;;;;;;;4.09;60.17;100856.44;4973545;28;20038;-81
2022/02/19 00:40:26;;;;;;;7.47;3.20;;;;;;;4.10;60.43;100848.00;4989914;28;20046;-80
2022/02/19 00:42:52;;;;;;;7.53;3.20;;;;;;;4.09;60.08;100850.41;5021615;28;20111;-79
2022/02/19 00:45:17;;;;;;;8.43;3.03;;;;;;;4.04;60.44;100847.56;5013446;28;20033;-80
2022/02/19 00:47:43;;;;;;;7.47;2.55;;;;;;;3.47;61.83;100844.44;5013711;28;20033;-79
2022/02/19 00:50:08;;;;;;;11.27;4.90;;;;;;;2.90;63.97;100830.13;5013446;28;20029;-80
2022/02/19 00:52:35;;;;;;;6.00;3.20;;;;;;;2.91;64.33;100819.16;5031479;28;20132;-81
2022/02/19 00:55:00;;;;;;;8.07;4.07;;;;;;;3.01;63.93;100803.75;5031524;28;20025;-80
2022/02/19 00:57:26;;;;;;;7.10;3.67;;;;;;;3.13;63.53;100795.19;5031161;28;20529;-84
2022/02/19 00:59:51;;;;;;;8.30;3.13;;;;;;;3.36;63.59;100825.81;5031306;28;20411;-81
2022/02/19 01:02:17;;;;;;;10.75;3.33;;;;;;;3.36;63.19;100827.47;5013424;28;20025;-77
2022/02/19 01:04:42;;;;;;;11.68;3.58;;;;;;;3.41;63.14;100823.59;5030876;28;20033;-84
2022/02/19 01:07:08;;;;;;;13.30;3.07;;;;;;;3.42;62.21;100824.50;5030088;28;20043;-80
2022/02/19 01:09:35;;;;;;;7.63;2.67;;;;;;;3.18;61.99;100804.09;5031285;28;20112;-80
2022/02/19 01:12:00;;;;;;;6.57;3.88;;;;;;;3.27;62.13;100814.97;5013433;28;20029;-80
2022/02/19 01:14:26;;;;;;;5.60;2.30;;;;;;;3.30;62.36;100832.16;5013118;28;20571;-79
2022/02/19 01:16:51;;;;;;;6.35;2.30;;;;;;;3.37;63.54;100835.25;5031180;28;20432;-81
2022/02/19 01:19:17;;;;;;;6.65;2.80;;;;;;;2.92;71.31;100831.16;5030991;28;20087;-80
2022/02/19 01:21:42;;;;;;;8.77;3.00;;;;;;;2.51;75.80;100839.16;5031068;28;20072;-80
2022/02/19 01:24:08;;;;;;;10.87;3.17;;;;;;;2.62;75.58;100830.66;5013041;28;20029;-76
2022/02/19 01:26:33;;;;;;;5.10;2.80;;;;;;;2.80;73.37;100826.00;5013132;28;20029;-84
2022/02/19 01:29:01;;;;;;;6.27;2.30;;;;;;;2.97;73.60;100841.69;5030747;28;20025;-84
2022/02/19 01:31:27;;;;;;;7.83;2.30;;;;;;;2.58;74.59;100759.84;5030605;28;20029;-84
2022/02/19 01:33:52;;;;;;;7.53;2.50;;;;;;;3.16;74.77;100838.81;5030446;28;20099;-79
2022/02/19 01:36:18;;;;;;;7.03;2.30;;;;;;;3.12;73.78;100842.81;5031041;28;20468;-79
2022/02/19 01:38:43;;;;;;;7.07;2.27;;;;;;;3.03;73.80;100821.75;5030656;28;20040;-83
2022/02/19 01:41:09;;;;;;;7.97;3.17;;;;;;;3.21;74.11;100858.75;5030684;28;20025;-81
2022/02/19 01:43:35;;;;;;;9.15;2.40;;;;;;;3.34;73.66;100852.00;5030469;28;20032;-79
2022/02/19 01:46:00;;;;;;;10.10;2.87;;;;;;;3.35;73.20;100841.94;5012790;28;20040;-85
2022/02/19 01:48:28;;;;;;;10.30;2.40;;;;;;;3.30;72.00;100840.72;5030318;28;20033;-81
2022/02/19 01:50:54;;;;;;;11.13;4.05;;;;;;;3.31;70.13;100854.34;5030532;28;20061;-84
2022/02/19 01:53:40;;;;;;;8.57;3.63;;;;;;;2.75;68.71;100833.34;5012707;28;20025;-81
2022/02/19 01:56:06;;;;;;;14.83;4.17;;;;;;;2.41;69.24;100851.19;4933974;29;20049;-78
2022/02/19 01:58:36;;;;;;;9.57;4.27;;;;;;;2.22;69.17;100850.59;4950049;29;20065;-80
2022/02/19 02:01:01;;;;;;;6.68;3.70;;;;;;;1.60;71.21;100850.91;4949710;29;20078;-82
2022/02/19 02:03:27;;;;;;;8.20;3.73;;;;;;;1.66;70.33;100856.47;4950104;29;20125;-79
2022/02/19 02:05:52;;;;;;;8.23;3.80;;;;;;;1.57;69.88;100861.72;4949967;28;20027;-81
2022/02/19 02:08:19;;;;;;;8.47;4.10;;;;;;;1.35;70.93;100861.66;4949785;29;20079;-82
2022/02/19 02:10:47;;;;;;;9.57;3.50;;;;;;;1.07;72.44;100846.75;4949820;28;20122;-77
2022/02/19 02:13:12;;;;;;;9.17;3.20;;;;;;;0.94;72.53;100816.00;4949739;28;20031;-79
2022/02/19 02:15:38;;;;;;;6.93;2.67;;;;;;;1.11;72.52;100858.06;4949800;28;20038;-81
2022/02/19 02:18:03;;;;;;;6.57;2.87;;;;;;;1.26;72.04;100866.03;4951883;28;20031;-84
2022/02/19 02:20:29;;;;;;;10.97;3.33;;;;;;;1.18;71.78;100860.31;4937440;29;20131;-81
2022/02/19 02:22:55;;;;;;;7.80;3.33;;;;;;;1.35;71.35;100869.31;4953651;29;20105;-80
2022/02/19 02:25:25;;;;;;;9.10;3.10;;;;;;;1.48;71.05;100870.28;4953762;29;20031;-80
2022/02/19 02:27:51;;;;;;;6.10;2.87;;;;;;;1.70;70.30;100860.16;4953617;28;20040;-78
2022/02/19 02:30:16;;;;;;;8.57;3.30;;;;;;;1.88;69.46;100848.88;4953345;28;20042;-83
2022/02/19 02:32:42;;;;;;;7.97;3.07;;;;;;;1.84;68.76;100823.91;4959983;28;20121;-77
2022/02/19 02:35:08;;;;;;;8.07;3.77;;;;;;;2.10;67.92;100876.00;4994578;28;20030;-77
2022/02/19 02:37:33;;;;;;;8.80;3.50;;;;;;;2.06;67.56;100856.16;4995538;28;20132;-77
2022/02/19 02:39:59;;;;;;;11.90;3.73;;;;;;;2.06;67.96;100851.06;5033871;28;20103;-80
2022/02/19 02:42:24;;;;;;;8.40;3.47;;;;;;;2.14;67.95;100851.66;5033925;28;20041;-82
2022/02/19 02:44:51;;;;;;;11.23;4.10;;;;;;;1.89;68.27;100854.84;5015752;28;20029;-82
2022/02/19 02:47:17;;;;;;;18.00;6.17;;;;;;;1.62;70.00;100846.84;5016138;28;20112;-80
2022/02/19 02:49:42;;;;;;;17.63;7.37;;;;;;;1.66;70.57;100856.47;5033817;28;20118;-80
2022/02/19 02:52:09;;;;;;;18.80;7.40;;;;;;;1.70;70.35;100847.44;5015431;28;20123;-77
2022/02/19 02:54:35;;;;;;;17.37;6.40;;;;;;;1.81;70.65;100851.69;5033488;28;20569;-80
2022/02/19 02:57:01;;;;;;;13.97;6.33;;;;;;;1.89;69.74;100862.47;5015730;28;20652;-79
2022/02/19 02:59:27;;;;;;;15.30;6.00;;;;;;;1.83;69.73;100859.44;5033373;28;20033;-80
2022/02/19 03:01:53;;;;;;;13.00;6.10;;;;;;;1.88;69.93;100866.69;5033751;28;20116;-80
2022/02/19 03:04:18;;;;;;;15.00;5.87;;;;;;;1.84;69.76;100866.31;5033409;28;20113;-78
2022/02/19 03:06:44;;;;;;;15.57;5.40;;;;;;;1.63;69.58;100886.75;5033613;28;20104;-80
2022/02/19 03:09:09;;;;;;;9.37;3.83;;;;;;;1.24;69.44;100870.09;5033196;28;20037;-79
2022/02/19 03:11:38;;;;;;;12.63;4.77;;;;;;;1.34;69.53;100899.72;5033616;28;20108;-80
2022/02/19 03:14:09;;;;;;;10.90;4.80;;;;;;;0.96;70.41;100858.56;5023496;28;20025;-80
2022/02/19 03:16:35;;;;;;;13.57;4.90;;;;;;;1.22;69.77;100909.75;5013642;28;20120;-77
2022/02/19 03:19:01;;;;;;;13.20;4.33;;;;;;;1.30;69.94;100901.13;5013522;28;20057;-83
2022/02/19 03:21:26;;;;;;;11.50;3.37;;;;;;;1.17;70.19;100903.41;5013507;28;20030;-78
2022/02/19 03:23:52;;;;;;;14.07;3.30;;;;;;;1.12;70.13;100885.25;5013481;28;20034;-82
2022/02/19 03:26:19;;;;;;;8.30;4.20;;;;;;;1.01;70.79;100892.00;4995350;28;20021;-80
2022/02/19 03:28:44;;;;;;;9.33;3.90;;;;;;;0.86;71.48;100900.91;4994665;28;20037;-79
2022/02/19 03:31:10;;;;;;;7.23;3.63;;;;;;;0.54;73.31;100917.78;5012862;28;20042;-77
2022/02/19 03:33:35;;;;;;;5.87;3.13;;;;;;;0.56;73.66;100923.00;5013060;28;20030;-76
2022/02/19 03:36:01;;;;;;;18.43;5.33;;;;;;;0.57;73.88;100920.56;4995250;28;20029;-80
2022/02/19 03:38:26;;;;;;;8.00;3.30;;;;;;;0.57;74.04;100912.06;5013249;28;20036;-79
2022/02/19 03:40:51;;;;;;;6.23;3.00;;;;;;;0.78;72.93;100920.59;5012763;28;20057;-76
2022/02/19 03:43:17;;;;;;;6.83;2.73;;;;;;;0.84;73.03;100912.63;5012966;28;20057;-80
2022/02/19 03:45:45;;;;;;;5.57;2.67;;;;;;;0.69;72.73;100879.19;5013112;28;20516;-78
2022/02/19 03:48:11;;;;;;;9.73;2.97;;;;;;;0.95;71.93;100911.84;5012789;28;20451;-80
2022/02/19 03:50:36;;;;;;;7.20;3.03;;;;;;;0.74;72.05;100881.34;4996694;28;20038;-77
2022/02/19 03:53:03;;;;;;;8.10;3.03;;;;;;;0.88;72.28;100912.97;5032294;28;20033;-77
2022/02/19 03:55:28;;;;;;;9.70;3.20;;;;;;;1.06;71.55;100930.50;5032503;28;20567;-79
2022/02/19 03:57:54;;;;;;;10.60;4.40;;;;;;;0.80;72.30;100935.22;5032151;28;20133;-80
2022/02/19 04:00:19;;;;;;;8.23;3.93;;;;;;;0.47;72.43;100888.44;5014411;28;20033;-82
2022/02/19 04:02:45;;;;;;;10.07;3.97;;;;;;;0.77;72.80;100916.28;5032406;28;20044;-82
2022/02/19 04:05:13;;;;;;;9.30;4.73;;;;;;;0.98;71.95;100893.41;5030848;28;20044;-81
2022/02/19 04:07:38;;;;;;;13.50;4.37;;;;;;;1.08;71.02;100893.38;5014666;28;20029;-82
2022/02/19 04:10:06;;;;;;;11.80;4.63;;;;;;;1.16;70.79;100909.25;5014334;28;20455;-78
2022/02/19 04:12:31;;;;;;;12.50;4.63;;;;;;;1.24;70.98;100923.50;5031905;28;20030;-79
2022/02/19 04:14:57;;;;;;;11.87;4.87;;;;;;;1.35;70.93;100921.84;5032313;28;20088;-77
2022/02/19 04:17:22;;;;;;;10.60;4.37;;;;;;;1.24;70.70;100914.22;5031997;28;20036;-79
2022/02/19 04:19:50;;;;;;;13.00;4.57;;;;;;;1.38;70.69;100925.50;5032111;28;20040;-79
2022/02/19 04:22:16;;;;;;;10.40;4.13;;;;;;;1.39;71.67;100906.94;5031789;28;20044;-77
2022/02/19 04:24:42;;;;;;;13.97;4.63;;;;;;;1.59;73.41;100910.19;5031594;28;20033;-79
2022/02/19 04:27:08;;;;;;;8.13;4.30;;;;;;;1.64;76.81;100905.47;5014191;28;20042;-79
2022/02/19 04:29:34;;;;;;;11.03;4.53;;;;;;;1.73;77.45;100903.66;5032186;28;20041;-83
2022/02/19 04:31:59;;;;;;;9.83;4.93;;;;;;;1.68;75.14;100897.31;5013987;28;20399;-77
2022/02/19 04:34:25;;;;;;;13.40;4.27;;;;;;;1.63;74.13;100912.22;5031389;28;20491;-81
2022/02/19 04:36:51;;;;;;;7.77;4.10;;;;;;;1.42;74.41;100912.28;5031541;28;20044;-77
2022/02/19 04:39:18;;;;;;;11.30;5.03;;;;;;;1.35;72.97;100910.00;5013476;28;20040;-81
2022/02/19 04:41:43;;;;;;;9.70;4.57;;;;;;;1.11;72.01;100897.06;5013649;28;20052;-82
2022/02/19 04:44:09;;;;;;;12.83;5.40;;;;;;;1.10;72.33;100907.13;5031554;28;20491;-78
2022/02/19 04:46:34;;;;;;;19.43;5.00;;;;;;;1.00;72.35;100884.22;5031520;28;20083;-78
2022/02/19 04:48:59;;;;;;;10.83;4.80;;;;;;;1.09;73.53;100897.72;5031375;28;20037;-79
2022/02/19 04:51:25;;;;;;;8.67;4.40;;;;;;;1.04;72.56;100896.47;4989118;28;20057;-78
2022/02/19 04:53:50;;;;;;;8.40;3.87;;;;;;;1.02;71.97;100896.31;4972922;28;20039;-78
2022/02/19 04:56:16;;;;;;;9.97;4.10;;;;;;;0.88;71.99;100896.84;4989352;28;20049;-75
2022/02/19 04:58:41;;;;;;;9.33;3.73;;;;;;;0.81;72.61;100903.09;4989538;28;20053;-82
2022/02/19 05:01:07;;;;;;;14.03;4.50;;;;;;;0.95;72.29;100896.59;4973040;28;20058;-79
2022/02/19 05:03:32;;;;;;;17.23;4.30;;;;;;;0.94;72.70;100894.81;4989550;28;20128;-78
2022/02/19 05:05:58;;;;;;;9.23;3.90;;;;;;;0.94;72.73;100888.06;4989631;28;20038;-79
2022/02/19 05:08:23;;;;;;;14.83;5.17;;;;;;;0.89;72.86;100889.34;4989242;28;20034;-79
2022/02/19 05:10:49;;;;;;;11.90;5.90;;;;;;;0.20;73.97;100827.69;4973062;28;20045;-78
2022/02/19 05:13:14;;;;;;;13.53;6.50;;;;;;;0.49;75.23;100896.19;4989264;28;20030;-80
2022/02/19 05:15:39;;;;;;;10.60;5.90;;;;;;;0.51;76.70;100901.41;4989316;28;20113;-81
2022/02/19 05:18:06;;;;;;;13.33;5.83;;;;;;;0.23;77.19;100859.31;4972721;28;20537;-79
2022/02/19 05:20:31;;;;;;;11.30;5.67;;;;;;;0.55;77.42;100926.28;4989111;28;20433;-82
2022/02/19 05:22:57;;;;;;;17.83;7.50;;;;;;;0.45;77.12;100919.56;5001877;28;20041;-75
2022/02/19 05:25:23;;;;;;;20.23;6.63;;;;;;;0.27;77.73;100906.19;5030547;28;20029;-75
2022/02/19 05:27:48;;;;;;;15.27;7.03;;;;;;;0.33;78.23;100924.47;5031178;28;20033;-81
2022/02/19 05:30:14;;;;;;;13.67;6.50;;;;;;;0.33;78.45;100929.56;5012952;28;20534;-76
2022/02/19 05:32:39;;;;;;;12.87;5.80;;;;;;;0.41;81.16;100935.28;5030560;28;20026;-82
2022/02/19 05:35:06;;;;;;;11.20;4.90;;;;;;;0.54;83.50;100929.63;5012803;28;20033;-79
2022/02/19 05:37:32;;;;;;;13.37;5.27;;;;;;;0.72;83.21;100931.13;5030380;28;20026;-77
2022/02/19 05:39:58;;;;;;;15.00;3.87;;;;;;;0.94;81.29;100959.25;5012778;28;20037;-78
2022/02/19 05:42:25;;;;;;;22.90;8.77;;;;;;;0.87;77.59;100963.69;5030799;28;20092;-79
2022/02/19 05:44:51;;;;;;;23.93;7.57;;;;;;;0.63;76.44;100961.75;5012968;28;20511;-80
2022/02/19 05:47:17;;;;;;;17.00;5.33;;;;;;;0.47;76.77;100976.44;5012642;28;20132;-79
2022/02/19 05:49:43;;;;;;;13.43;5.70;;;;;;;0.46;76.18;100982.28;4988562;28;20515;-79
2022/02/19 05:52:09;;;;;;;8.90;3.60;;;;;;;0.26;76.53;100980.56;4974955;28;20042;-76
2022/02/19 05:54:35;;;;;;;23.50;10.53;;;;;;;0.34;77.19;100987.22;4973285;28;20099;-76
2022/02/19 05:57:01;;;;;;;10.00;3.43;;;;;;;0.47;75.93;100974.81;4973235;28;20447;-80
2022/02/19 05:59:26;;;;;;;6.60;3.23;;;;;;;0.66;76.77;100973.84;4973262;28;20030;-82
2022/02/19 06:01:52;;;;;;;126.27;47.87;;;;;;;0.70;78.14;100969.88;4973359;28;20039;-80
2022/02/19 06:04:17;;;;;;;12.67;5.80;;;;;;;0.74;78.92;100962.66;4973149;28;20477;-79
2022/02/19 06:06:43;;;;;;;45.77;23.13;;;;;;;0.77;79.78;100977.28;4973035;28;20081;-77
2022/02/19 06:09:08;;;;;;;16.13;7.43;;;;;;;0.33;81.08;100967.66;4972973;28;20061;-79
2022/02/19 06:11:35;;;;;;;10.83;4.60;;;;;;;0.38;81.68;100973.13;4973013;28;20150;-76
2022/02/19 06:14:00;;;;;;;10.53;4.57;;;;;;;0.32;81.83;100974.41;4972747;28;20576;-79
2022/02/19 06:16:25;;;;;;;16.17;8.63;;;;;;;0.42;82.49;100986.22;4973123;28;20038;-77
2022/02/19 06:18:51;;;;;;;15.73;6.93;;;;;;;0.59;80.29;101002.03;4973096;28;20038;-77
2022/02/19 06:21:17;;;;;;;11.77;5.63;;;;;;;0.61;80.03;100980.16;4991245;28;20227;-77
2022/02/19 06:23:42;;;;;;;19.70;8.30;;;;;;;0.88;80.13;101001.94;5014049;28;20030;-80
2022/02/19 06:26:08;;;;;;;24.10;9.37;;;;;;;0.91;80.21;100955.53;5013952;28;20033;-77
2022/02/19 06:28:33;;;;;;;180.70;70.03;;;;;;;1.19;79.06;100993.47;5014189;28;20025;-82
2022/02/19 06:30:58;;;;;;;25.10;10.87;;;;;;;1.27;79.22;100998.41;5014500;28;20059;-80
2022/02/19 06:33:24;;;;;;;175.73;86.83;;;;;;;1.37;79.03;100988.97;4996370;28;20022;-81
2022/02/19 06:35:49;;;;;;;28.03;13.37;;;;;;;1.72;77.55;100990.97;5012736;28;20040;-78
2022/02/19 06:38:15;;;;;;;15.27;6.73;;;;;;;1.95;75.32;100995.38;4996138;28;20038;-81
2022/02/19 06:40:40;;;;;;;12.23;4.83;;;;;;;1.82;75.78;101001.16;5014067;28;20030;-76
2022/02/19 06:43:06;;;;;;;10.20;4.00;;;;;;;1.83;75.04;100981.66;5013892;28;20037;-77
2022/02/19 06:45:31;;;;;;;13.13;3.60;;;;;;;1.80;74.73;100991.59;5013953;28;20026;-79
2022/02/19 06:47:57;;;;;;;13.00;4.43;;;;;;;1.80;75.56;100983.97;5013852;28;20049;-76
2022/02/19 06:50:22;;;;;;;13.43;4.70;;;;;;;2.05;74.39;100992.78;4995984;28;20034;-77
2022/02/19 06:52:48;;;;;;;12.10;4.20;;;;;;;2.19;73.69;100995.53;5033120;28;20052;-83
2022/02/19 06:55:13;;;;;;;9.60;4.43;;;;;;;2.14;72.81;100995.16;5033325;28;20726;-78
2022/02/19 06:57:39;;;;;;;10.77;4.07;;;;;;;2.02;74.79;101007.81;5015679;28;20392;-77
2022/02/19 07:00:07;;;;;;;11.07;4.20;;;;;;;2.27;73.06;101004.69;5033272;28;20029;-82
2022/02/19 07:02:32;;;;;;;9.20;4.00;;;;;;;2.43;72.82;100981.28;5033303;28;20021;-77
2022/02/19 07:04:58;;;;;;;12.30;4.67;;;;;;;2.82;71.37;100964.72;5033279;28;20503;-81
2022/02/19 07:07:23;;;;;;;16.47;4.57;;;;;;;3.05;70.71;100994.53;5033134;28;20091;-78
2022/02/19 07:09:49;;;;;;;13.07;4.73;;;;;;;3.00;71.03;101003.47;5033109;28;20543;-78
2022/02/19 07:12:15;;;;;;;14.63;5.17;;;;;;;2.89;72.11;101009.41;5033198;28;20047;-78
2022/02/19 07:14:40;;;;;;;11.97;5.17;;;;;;;3.04;71.65;100985.09;5015174;28;20124;-80
2022/02/19 07:17:06;;;;;;;12.20;4.80;;;;;;;3.24;70.32;100994.25;5033184;28;20068;-81
2022/02/19 07:19:35;;;;;;;13.13;6.20;;;;;;;3.20;70.76;101011.75;5015088;28;20026;-78
2022/02/19 07:22:01;;;;;;;15.48;6.50;;;;;;;3.23;70.31;101000.09;5015024;28;20033;-82
2022/02/19 07:24:27;;;;;;;12.57;5.77;;;;;;;2.98;70.60;101014.34;5015059;28;20038;-78
2022/02/19 07:26:53;;;;;;;14.30;5.60;;;;;;;3.11;69.98;101001.75;5032866;28;20090;-79
2022/02/19 07:29:19;;;;;;;14.47;5.63;;;;;;;3.04;70.80;100981.63;5032877;28;20451;-79
2022/02/19 07:31:45;;;;;;;12.87;4.80;;;;;;;3.42;69.15;100986.16;5025825;28;20026;-79
2022/02/19 07:34:11;;;;;;;14.90;5.07;;;;;;;3.69;67.93;100987.31;5014848;28;20495;-79
2022/02/19 07:36:36;;;;;;;10.10;4.80;;;;;;;3.77;66.46;100975.09;5024354;28;20116;-80
2022/02/19 07:39:02;;;;;;;18.00;4.93;;;;;;;4.11;65.46;100987.75;5003965;28;20033;-77
2022/02/19 07:41:28;;;;;;;13.93;4.90;;;;;;;4.38;64.46;100978.56;5023387;28;20109;-81
2022/02/19 07:43:53;;;;;;;10.55;5.32;;;;;;;4.69;63.95;100984.94;5004295;28;20105;-81
2022/02/19 07:46:19;;;;;;;9.55;3.90;;;;;;;4.84;60.63;100974.88;5020117;28;20052;-79
2022/02/19 07:48:44;;;;;;;12.38;4.93;;;;;;;4.94;60.55;100953.34;5018119;28;20037;-80
2022/02/19 07:59:22;;;;;;;13.45;4.63;;;;;;;5.07;58.62;100921.78;5022525;28;20099;-81
2022/02/19 08:01:48;;;;;;;17.40;5.65;;;;;;;5.39;58.70;100956.31;5014233;28;20462;-81
2022/02/19 08:04:14;;;;;;;12.93;4.40;;;;;;;5.23;58.03;100916.88;5004294;28;20107;-81
2022/02/19 08:06:40;;;;;;;12.13;5.05;;;;;;;5.66;58.02;100947.84;5003443;28;20029;-82
2022/02/19 08:09:05;;;;;;;10.25;4.35;;;;;;;6.03;56.31;100956.13;5018481;28;20022;-80
2022/02/19 08:11:30;;;;;;;10.05;3.40;;;;;;;6.28;54.23;100950.84;5004517;28;20040;-79
2022/02/19 08:13:56;;;;;;;13.90;4.97;;;;;;;6.62;54.27;100942.69;5022073;28;20026;-81
2022/02/19 08:16:22;;;;;;;14.02;4.85;;;;;;;6.89;53.81;100940.88;5002540;28;20030;-80
2022/02/19 08:18:50;;;;;;;9.52;4.38;;;;;;;7.00;54.24;100935.50;4994607;28;20028;-80
2022/02/19 08:21:17;;;;;;;14.60;3.80;;;;;;;7.03;53.55;100948.50;5015968;28;20069;-81
2022/02/19 08:23:44;;;;;;;13.70;4.13;;;;;;;7.00;54.46;100912.38;5018674;28;20468;-80
2022/02/19 08:26:09;;;;;;;11.50;4.40;;;;;;;6.88;53.63;100926.28;5011074;28;20110;-79
2022/02/19 08:28:34;;;;;;;12.23;4.60;;;;;;;6.60;54.49;100923.72;5003122;28;20499;-79
2022/02/19 08:31:00;;;;;;;11.07;3.95;;;;;;;6.97;54.79;100946.47;5022233;28;20025;-85
2022/02/19 08:33:25;;;;;;;12.45;4.55;;;;;;;7.05;54.34;100941.78;5021627;28;20037;-83
2022/02/19 08:35:51;;;;;;;11.18;3.80;;;;;;;7.21;56.10;100956.41;5020706;28;20392;-82
2022/02/19 08:38:17;;;;;;;8.25;3.38;;;;;;;7.23;56.23;100953.13;5000321;28;20456;-83
2022/02/19 08:40:42;;;;;;;4.55;2.85;;;;;;;7.42;55.54;100947.34;5016680;28;20040;-82
2022/02/19 08:43:08;;;;;;;8.65;3.30;;;;;;;7.43;56.05;100938.00;4994091;28;20037;-76
2022/02/19 08:45:34;;;;;;;8.40;3.20;;;;;;;7.63;55.77;100945.91;5014598;28;20109;-80
2022/02/19 08:48:04;;;;;;;7.75;3.42;;;;;;;7.54;55.19;100930.88;5019374;28;20022;-79
2022/02/19 08:50:31;;;;;;;;;;;;;;;8.02;54.61;100960.13;5013835;28;20503;-82
2022/02/19 08:52:57;;;;;;;7.57;3.72;;;;;;;8.30;53.80;100956.50;5030672;28;20375;-78
2022/02/19 08:55:23;;;;;;;17.98;8.10;;;;;;;8.31;54.27;100947.97;5028515;28;20029;-79
2022/02/19 08:57:49;;;;;;;10.25;4.20;;;;;;;8.29;54.19;100904.94;5030613;28;20036;-79
2022/02/19 09:00:15;;;;;;;7.82;3.60;;;;;;;8.72;52.87;100949.31;5030940;28;20025;-79
2022/02/19 09:02:41;;;;;;;18.48;9.43;;;;;;;8.81;53.45;100919.69;5013043;28;20018;-80
2022/02/19 09:05:09;;;;;;;7.30;3.33;;;;;;;8.97;52.84;100932.56;5030755;28;20175;-79
2022/02/19 09:07:35;;;;;;;8.52;2.97;;;;;;;9.12;52.17;100936.69;5030710;28;20043;-83
2022/02/19 09:10:01;;;;;;;6.60;3.15;;;;;;;9.29;51.65;100932.41;5030830;28;20076;-81
2022/02/19 09:12:28;;;;;;;9.90;3.95;;;;;;;9.18;51.08;100877.75;5013066;28;20065;-81
2022/02/19 09:14:53;;;;;;;9.30;4.32;;;;;;;9.75;50.91;100924.31;4996633;28;20038;-81
2022/02/19 09:17:20;;;;;;;8.38;3.92;;;;;;;9.91;50.62;100900.13;4993229;28;20495;-84
2022/02/19 09:19:45;;;;;;;8.05;3.50;;;;;;;10.11;51.34;100903.63;5030339;28;20067;-78
2022/02/19 09:22:11;;;;;;;14.27;3.53;;;;;;;10.37;50.01;100916.88;5029816;28;20067;-82
2022/02/19 09:24:38;;;;;;;7.57;3.00;;;;;;;10.39;50.90;100914.34;5030482;28;20037;-81
2022/02/19 09:27:03;;;;;;;8.27;3.42;;;;;;;10.54;49.72;100919.31;5011091;28;20037;-83
2022/02/19 09:29:29;;;;;;;10.85;3.47;;;;;;;10.76;49.46;100918.56;5030311;28;20502;-88
2022/02/19 09:31:55;;;;;;;8.18;3.00;;;;;;;10.87;48.12;100904.41;5010189;28;20057;-86
2022/02/19 09:34:22;;;;;;;4.10;1.83;;;;;;;11.02;42.84;100896.41;5008030;28;20538;-85
2022/02/19 09:36:49;;;;;;;4.75;2.58;;;;;;;11.20;44.96;100904.03;5010503;28;20846;-85
2022/02/19 09:39:14;;;;;;;6.68;2.45;;;;;;;11.27;43.84;100907.78;5011617;28;20021;-75
2022/02/19 09:41:47;;;;;;;5.47;2.35;;;;;;;11.42;44.28;100900.63;5026405;28;20048;-83
2022/02/19 09:44:13;;;;;;;6.80;2.80;;;;;;;11.47;44.34;100886.19;5030197;28;20063;-87
2022/02/19 09:46:39;;;;;;;5.85;2.20;;;;;;;11.72;43.36;100878.53;5004852;28;20061;-88
2022/02/19 09:49:06;;;;;;;7.32;3.15;;;;;;;11.60;43.26;100878.91;4993706;28;20029;-83
2022/02/19 09:51:33;;;;;;;5.15;2.70;;;;;;;11.75;43.25;100896.75;5029611;28;20045;-86
2022/02/19 09:53:59;;;;;;;8.98;3.30;;;;;;;12.01;43.75;100896.91;5008335;28;20037;-82
2022/02/19 09:56:27;;;;;;;6.55;3.38;;;;;;;12.05;42.98;100889.31;4982550;28;20129;-85
2022/02/19 09:58:54;;;;;;;14.65;5.95;;;;;;;11.95;43.60;100885.47;4963436;28;20038;-82
2022/02/19 10:01:24;;;;;;;6.22;2.97;;;;;;;12.11;42.53;100884.38;4961435;28;20039;-84
2022/02/19 10:04:08;;;;;;;9.57;3.38;;;;;;;12.06;43.48;100888.50;4987438;28;20062;-78
2022/02/19 10:06:37;;;;;;;7.85;3.58;;;;;;;12.22;43.92;100884.75;4986955;28;20029;-78
2022/02/19 10:09:16;;;;;;;5.95;3.67;;;;;;;12.41;43.81;100875.97;4984945;28;20521;-77
2022/02/19 10:11:42;;;;;;;7.32;3.58;;;;;;;12.25;43.74;100881.38;4986704;28;20089;-77
2022/02/19 10:14:26;;;;;;;8.55;3.47;;;;;;;12.36;43.47;100874.03;4986577;28;20492;-77
2022/02/19 10:17:04;;;;;;;6.45;2.83;;;;;;;12.61;43.22;100873.19;4986807;28;20100;-78
2022/02/19 10:19:34;;;;;;;7.45;3.30;;;;;;;12.79;43.26;100871.22;4986230;28;20034;-82
2022/02/19 10:22:09;;;;;;;5.82;3.00;;;;;;;12.84;44.04;100852.41;4987036;28;20098;-77
2022/02/19 10:24:36;;;;;;;9.02;2.95;;;;;;;13.06;42.74;100869.53;4968517;28;20125;-75
2022/02/19 10:27:03;;;;;;;5.20;2.72;;;;;;;13.10;41.90;100864.50;4967864;28;20148;-81
2022/02/19 10:29:31;;;;;;;6.72;2.92;;;;;;;13.21;41.96;100859.66;4967703;28;20131;-79
2022/02/19 10:31:57;;;;;;;11.55;3.35;;;;;;;12.86;42.73;100835.16;4933883;29;20039;-78
2022/02/19 10:34:22;;;;;;;6.60;2.90;;;;;;;13.18;42.33;100856.09;4988210;28;20057;-80
2022/02/19 10:36:51;;;;;;;7.20;2.50;;;;;;;13.21;42.24;100862.25;5006494;28;20036;-81
2022/02/19 10:39:28;;;;;;;12.18;2.95;;;;;;;13.26;41.71;100855.50;4989573;28;20129;-82
2022/02/19 10:42:01;;;;;;;5.38;2.65;;;;;;;13.39;41.54;100859.41;4994609;28;20116;-82
2022/02/19 10:44:30;;;;;;;6.68;3.13;;;;;;;13.47;42.58;100853.56;5010351;28;20042;-80
2022/02/19 10:47:22;;;;;;;6.28;2.63;;;;;;;13.62;41.16;100840.19;5008815;28;20028;-77
2022/02/19 10:50:03;;;;;;;14.75;6.78;;;;;;;12.94;41.48;100737.84;4914897;29;20062;-82
2022/02/19 10:52:29;;;;;;;6.80;2.60;;;;;;;13.35;41.93;100771.94;4948671;28;20048;-83
2022/02/19 10:55:09;;;;;;;7.85;2.95;;;;;;;13.56;41.96;100796.81;4953116;29;20052;-76
2022/02/19 10:57:39;;;;;;;7.68;2.90;;;;;;;13.84;40.93;100790.69;4953412;29;20569;-85
2022/02/19 11:00:24;;;;;;;7.45;2.88;;;;;;;14.03;40.56;100792.13;4936911;29;20031;-84
2022/02/19 11:02:50;;;;;;;7.07;2.85;;;;;;;14.08;41.42;100803.50;4952508;29;20506;-87
2022/02/19 11:05:17;;;;;;;7.28;2.83;;;;;;;14.11;40.66;100786.25;4952881;29;20117;-86
2022/02/19 11:07:45;;;;;;;6.20;2.63;;;;;;;14.28;40.52;100798.00;4936718;29;20126;-85
2022/02/19 11:10:21;;;;;;;8.43;4.72;;;;;;;14.28;40.86;100789.28;4936834;29;20035;-83
2022/02/19 11:12:48;;;;;;;8.48;2.90;;;;;;;14.49;40.65;100784.69;4952497;29;20111;-81
2022/02/19 11:15:18;;;;;;;6.45;2.58;;;;;;;14.19;40.04;100762.25;4952300;29;20061;-83
2022/02/19 11:17:47;;;;;;;6.93;3.10;;;;;;;14.36;39.56;100764.41;4952578;29;20063;-85
2022/02/19 11:20:13;;;;;;;6.67;3.07;;;;;;;14.43;39.88;100768.03;4952750;29;20074;-84
2022/02/19 11:22:40;;;;;;;8.15;2.88;;;;;;;14.64;39.82;100776.41;4936723;29;20303;-91
2022/02/19 11:25:13;;;;;;;7.68;3.03;;;;;;;14.64;39.52;100767.72;4952707;29;20038;-85
2022/02/19 11:27:56;;;;;;;7.82;2.65;;;;;;;14.65;40.11;100772.97;4983629;28;20097;-84
2022/02/19 11:30:24;;;;;;;9.60;3.67;;;;;;;14.74;40.26;100768.84;4993366;28;20471;-87
2022/02/19 11:32:54;;;;;;;8.25;4.43;;;;;;;14.47;40.49;100737.00;4995552;28;20034;-84
2022/02/19 11:35:31;;;;;;;;;;;;;;;14.78;40.99;100758.59;5013315;28;20029;-80